createdAt,value
2019-06-10T00:01:51.254Z,607.53
2019-06-10T00:04:23.119Z,481.90
2019-06-10T00:06:55.775Z,398.77
2019-06-10T00:09:31.178Z,267.03
2019-06-10T00:12:04.755Z,219.80
2019-06-10T00:14:38.252Z,183.55
2019-06-10T00:17:11.081Z,185.93
2019-06-10T00:19:43.459Z,192.00
2019-06-10T00:22:15.754Z,182.53
2019-06-10T00:24:48.063Z,183.70
2019-06-10T00:27:21.566Z,169.13
2019-06-10T00:29:55.060Z,161.17
2019-06-10T00:32:27.390Z,159.20
2019-06-10T00:35:01.968Z,157.23
2019-06-10T00:37:33.619Z,151.60
2019-06-10T00:40:09.995Z,152.93
2019-06-10T00:42:41.764Z,148.03
2019-06-10T00:45:18.048Z,143.13
2019-06-10T00:47:52.037Z,157.93
2019-06-10T00:50:23.253Z,148.85
2019-06-10T00:52:55.594Z,137.07
2019-06-10T00:55:27.893Z,139.73
2019-06-10T00:58:01.439Z,143.93
2019-06-10T01:00:34.239Z,138.88
2019-06-10T01:03:08.039Z,135.70
2019-06-10T01:05:42.227Z,130.27
2019-06-10T01:08:15.748Z,134.93
2019-06-10T01:10:51.986Z,125.30
2019-06-10T01:13:23.252Z,131.45
2019-06-10T01:15:55.578Z,128.62
2019-06-10T01:18:37.445Z,129.47
2019-06-10T01:21:02.119Z,133.03
2019-06-10T01:23:34.360Z,145.30
2019-06-10T01:26:07.607Z,148.68
2019-06-10T01:28:41.042Z,156.80
2019-06-10T01:31:20.208Z,155.55
2019-06-10T01:33:47.232Z,150.18
2019-06-10T01:36:21.110Z,146.40
2019-06-10T01:38:53.589Z,169.30
2019-06-10T01:41:25.877Z,169.75
2019-06-10T01:43:58.177Z,186.70
2019-06-10T01:46:32.486Z,183.15
2019-06-10T01:49:04.788Z,188.22
2019-06-10T01:51:38.067Z,171.57
2019-06-10T01:54:12.417Z,176.55
2019-06-10T01:56:44.464Z,162.85
2019-06-10T01:59:17.071Z,162.32
2019-06-10T02:01:52.154Z,187.65
2019-06-10T02:04:24.371Z,172.57
2019-06-10T02:06:56.657Z,184.43
2019-06-10T02:09:31.078Z,181.90
2019-06-10T02:12:03.001Z,178.35
2019-06-10T02:14:35.194Z,201.42
2019-06-10T02:17:07.421Z,204.03
2019-06-10T02:19:41.456Z,196.33
2019-06-10T02:22:16.964Z,171.35
2019-06-10T02:24:50.664Z,194.10
2019-06-10T02:27:23.223Z,173.28
2019-06-10T02:29:55.680Z,158.00
2019-06-10T02:32:33.038Z,199.27
2019-06-10T02:35:10.483Z,191.82
2019-06-10T02:37:38.084Z,166.65
2019-06-10T02:40:14.508Z,146.53
2019-06-10T02:42:46.710Z,162.40
2019-06-10T02:45:26.479Z,147.80
2019-06-10T02:47:55.103Z,185.00
2019-06-10T02:50:45.480Z,220.83
2019-06-10T02:53:19.713Z,237.63
2019-06-10T02:55:53.816Z,244.97
2019-06-10T02:58:33.261Z,249.27
2019-06-10T03:01:03.921Z,236.87
2019-06-10T03:03:42.707Z,180.10
2019-06-10T03:06:09.216Z,214.00
2019-06-10T03:08:43.599Z,233.87
2019-06-10T03:11:16.548Z,218.20
2019-06-10T03:13:49.661Z,238.15
2019-06-10T03:16:25.748Z,225.33
2019-06-10T03:18:57.439Z,209.20
2019-06-10T03:21:32.167Z,191.67
2019-06-10T03:24:03.680Z,173.82
2019-06-10T03:26:37.135Z,186.70
2019-06-10T03:29:09.393Z,185.77
2019-06-10T03:31:47.309Z,201.33
2019-06-10T03:34:17.646Z,194.40
2019-06-10T03:36:49.619Z,187.07
2019-06-10T03:39:23.858Z,180.60
2019-06-10T03:41:57.053Z,185.40
2019-06-10T03:44:29.326Z,187.70
2019-06-10T03:47:02.905Z,177.27
2019-06-10T03:49:48.992Z,178.83
2019-06-10T03:52:09.318Z,191.60
2019-06-10T03:54:43.295Z,190.73
2019-06-10T03:57:17.110Z,182.00
2019-06-10T03:59:49.584Z,190.60
2019-06-10T04:02:23.848Z,182.80
2019-06-10T04:04:55.891Z,192.90
2019-06-10T04:07:30.998Z,178.70
2019-06-10T04:10:02.467Z,168.75
2019-06-10T04:12:34.657Z,166.07
2019-06-10T04:15:07.085Z,161.80
2019-06-10T04:17:42.825Z,158.23
2019-06-10T04:20:17.732Z,154.57
2019-06-10T04:22:52.196Z,153.45
2019-06-10T04:25:27.599Z,138.40
2019-06-10T04:27:59.218Z,143.30
2019-06-10T04:30:34.626Z,160.80
2019-06-10T04:33:06.948Z,181.07
2019-06-10T04:35:39.306Z,229.20
2019-06-10T04:38:13.202Z,241.93
2019-06-10T04:40:45.600Z,303.70
2019-06-10T04:43:18.396Z,531.53
2019-06-10T04:45:52.811Z,598.33
2019-06-10T04:48:26.201Z,588.55
2019-06-10T04:50:58.878Z,978.17
2019-06-10T04:53:32.990Z,851.10
2019-06-10T04:56:06.243Z,925.35
2019-06-10T04:58:38.638Z,855.35
2019-06-10T05:01:12.116Z,598.28
2019-06-10T05:03:44.588Z,882.75
2019-06-10T05:06:18.995Z,979.55
2019-06-10T05:08:53.611Z,920.88
2019-06-10T05:11:26.973Z,777.05
2019-06-10T05:13:59.460Z,937.70
2019-06-10T05:16:34.934Z,964.65
2019-06-10T05:19:05.787Z,979.65
2019-06-10T05:21:38.113Z,972.65
2019-06-10T05:24:12.436Z,982.95
2019-06-10T05:26:46.454Z,992.17
2019-06-10T05:29:20.148Z,999.85
2019-06-10T05:31:52.787Z,985.00
2019-06-10T05:34:27.150Z,935.80
2019-06-10T05:36:59.198Z,875.62
2019-06-10T05:39:34.743Z,958.07
2019-06-10T05:42:05.511Z,894.60
2019-06-10T05:44:37.925Z,946.65
2019-06-10T05:47:12.249Z,975.68
2019-06-10T05:49:47.524Z,990.85
2019-06-10T05:52:19.900Z,999.90
2019-06-10T05:54:52.328Z,999.90
2019-06-10T05:57:25.803Z,999.90
2019-06-10T05:59:58.156Z,999.23
2019-06-10T06:02:32.706Z,989.05
2019-06-10T06:05:09.539Z,997.70
2019-06-10T06:07:42.445Z,999.90
2019-06-10T06:10:17.021Z,999.90
2019-06-10T06:12:49.422Z,997.45
2019-06-10T06:15:22.141Z,971.80
2019-06-10T06:18:07.293Z,982.08
2019-06-10T06:20:29.691Z,998.65
2019-06-10T06:23:03.274Z,998.83
2019-06-10T06:28:12.893Z,999.90
2019-06-10T06:30:44.758Z,999.90
2019-06-10T06:33:17.116Z,999.90
2019-06-10T06:35:49.538Z,999.90
2019-06-10T06:38:23.658Z,999.90
2019-06-10T06:40:56.012Z,999.90
2019-06-10T06:43:32.790Z,999.90
2019-06-10T06:46:07.215Z,999.90
2019-06-10T06:48:40.965Z,999.90
2019-06-10T06:51:14.695Z,996.48
2019-06-10T06:53:51.995Z,997.42
2019-06-10T06:56:23.089Z,994.37
2019-06-10T06:58:56.560Z,999.27
2019-06-10T07:01:29.683Z,998.27
2019-06-10T07:04:02.828Z,999.40
2019-06-10T07:06:38.650Z,998.62
2019-06-10T07:09:13.456Z,999.90
2019-06-10T07:11:47.994Z,999.90
2019-06-10T07:14:23.811Z,999.90
2019-06-10T07:16:55.481Z,996.08
2019-06-10T07:19:28.953Z,996.25
2019-06-10T07:24:37.241Z,999.90
2019-06-10T07:27:09.580Z,998.08
2019-06-10T07:32:14.928Z,999.90
2019-06-10T07:34:48.300Z,999.90
2019-06-10T07:39:52.445Z,999.90
2019-06-10T07:42:25.978Z,998.55
2019-06-10T07:45:02.523Z,999.68
2019-06-10T07:47:35.337Z,999.90
2019-06-10T07:50:08.411Z,998.23
2019-06-10T07:52:45.015Z,999.15
2019-06-10T07:55:16.922Z,986.82
2019-06-10T07:57:49.297Z,997.57
2019-06-10T08:00:22.762Z,998.00
2019-06-10T08:02:57.158Z,981.80
2019-06-10T08:05:29.485Z,999.23
2019-06-10T08:08:02.809Z,996.85
2019-06-10T08:10:35.316Z,995.57
2019-06-10T08:13:07.793Z,999.15
2019-06-10T08:15:42.922Z,996.08
2019-06-10T08:18:14.523Z,999.90
2019-06-10T08:20:49.465Z,999.90
2019-06-10T08:23:23.764Z,999.90
2019-06-10T08:25:57.843Z,999.50
2019-06-10T08:28:33.117Z,999.87
2019-06-10T08:31:08.646Z,999.90
2019-06-10T08:36:18.271Z,984.00
2019-06-10T08:38:52.629Z,651.15
2019-06-10T08:41:26.224Z,602.23
2019-06-10T08:43:58.524Z,965.83
2019-06-10T08:46:32.922Z,972.35
2019-06-10T08:49:07.775Z,939.30
2019-06-10T08:51:46.617Z,970.17
2019-06-10T08:54:16.656Z,946.85
2019-06-10T08:56:54.090Z,781.80
2019-06-10T08:59:24.857Z,782.85
2019-06-10T09:02:02.949Z,953.95
2019-06-10T09:04:45.580Z,951.17
2019-06-10T09:09:50.042Z,968.65
2019-06-10T09:12:30.377Z,856.15
2019-06-10T09:14:56.383Z,892.05
2019-06-10T09:17:28.874Z,858.20
2019-06-10T09:20:02.953Z,946.83
2019-06-10T09:22:39.814Z,943.62
2019-06-10T09:25:12.394Z,934.40
2019-06-10T09:27:47.907Z,945.65
2019-06-10T09:30:22.686Z,884.25
2019-06-10T09:32:57.590Z,937.00
2019-06-10T09:35:36.579Z,701.17
2019-06-10T09:38:10.541Z,944.60
2019-06-10T09:41:00.783Z,945.23
2019-06-10T09:43:28.069Z,952.90
2019-06-10T09:46:03.498Z,936.08
2019-06-10T09:48:36.243Z,953.35
2019-06-10T09:51:08.790Z,956.47
2019-06-10T09:53:46.423Z,955.75
2019-06-10T09:58:52.145Z,535.27
2019-06-10T10:01:25.150Z,830.90
2019-06-10T10:04:00.189Z,750.55
2019-06-10T10:09:07.319Z,805.50
2019-06-10T10:11:42.430Z,772.52
2019-06-10T10:16:50.800Z,606.55
2019-06-10T10:19:23.036Z,577.25
2019-06-10T10:24:27.857Z,563.70
2019-06-10T10:27:05.213Z,890.38
2019-06-10T10:29:36.835Z,746.65
2019-06-10T10:32:09.301Z,900.30
2019-06-10T10:34:43.774Z,932.32
2019-06-10T10:37:17.769Z,922.67
2019-06-10T10:39:56.091Z,902.75
2019-06-10T10:42:41.671Z,924.55
2019-06-10T10:47:38.898Z,930.10
2019-06-10T10:50:15.230Z,930.67
2019-06-10T10:52:53.917Z,934.62
2019-06-10T10:55:29.366Z,936.08
2019-06-10T10:58:03.240Z,932.58
2019-06-10T11:00:47.820Z,922.10
2019-06-10T11:06:00.501Z,930.08
2019-06-10T11:08:27.352Z,941.62
2019-06-10T11:11:05.270Z,940.58
2019-06-10T11:13:43.240Z,953.73
2019-06-10T11:16:22.495Z,948.17
2019-06-10T11:18:58.004Z,937.42
2019-06-10T11:21:32.903Z,924.05
2019-06-10T11:24:09.295Z,944.70
2019-06-10T11:29:18.631Z,943.62
2019-06-10T11:31:57.404Z,949.53
2019-06-10T11:34:33.205Z,958.53
2019-06-10T11:37:08.223Z,942.47
2019-06-10T11:39:43.192Z,958.65
2019-06-10T11:42:15.627Z,948.83
2019-06-10T11:44:48.419Z,944.67
2019-06-10T11:47:22.970Z,926.10
2019-06-10T11:55:16.507Z,932.58
2019-06-10T11:57:43.408Z,929.37
2019-06-10T12:00:17.656Z,955.45
2019-06-10T12:02:53.127Z,950.53
2019-06-10T12:07:59.530Z,951.65
2019-06-10T12:13:07.228Z,966.05
2019-06-10T12:16:13.864Z,957.95
2019-06-10T12:18:14.173Z,943.10
2019-06-10T12:20:46.533Z,947.85
2019-06-10T12:23:22.194Z,958.05
2019-06-10T12:25:56.701Z,953.85
2019-06-10T12:28:28.839Z,950.83
2019-06-10T12:31:07.308Z,955.35
2019-06-10T12:33:40.402Z,955.25
2019-06-10T12:36:13.070Z,944.73
2019-06-10T12:38:45.595Z,948.67
2019-06-10T12:41:18.871Z,954.40
2019-06-10T12:43:54.474Z,946.55
2019-06-10T12:46:27.336Z,960.70
2019-06-10T12:49:03.698Z,949.15
2019-06-10T12:54:06.428Z,975.30
2019-06-10T12:56:43.377Z,930.72
2019-06-10T12:59:16.792Z,935.05
2019-06-10T13:01:49.278Z,957.65
2019-06-10T13:04:22.620Z,912.72
2019-06-10T13:06:57.627Z,899.23
2019-06-10T13:09:34.694Z,926.58
2019-06-10T13:12:13.009Z,925.40
2019-06-10T13:14:44.587Z,929.45
2019-06-10T13:17:16.956Z,918.25
2019-06-10T13:19:52.304Z,931.45
2019-06-10T13:22:26.003Z,932.65
2019-06-10T13:25:02.801Z,919.28
2019-06-10T13:27:35.575Z,934.90
2019-06-10T13:30:08.618Z,928.65
2019-06-10T13:32:43.295Z,929.33
2019-06-10T13:35:17.540Z,925.73
2019-06-10T13:37:52.907Z,920.55
2019-06-10T13:40:33.806Z,921.65
2019-06-10T13:43:08.076Z,922.95
2019-06-10T13:48:15.543Z,920.92
2019-06-10T13:50:48.554Z,922.48
2019-06-10T13:53:20.980Z,912.08
2019-06-10T13:56:14.404Z,917.70
2019-06-10T14:01:13.872Z,922.95
2019-06-10T14:03:43.914Z,939.67
2019-06-10T14:11:26.929Z,929.60
2019-06-10T14:16:33.117Z,931.63
2019-06-10T14:19:07.570Z,928.45
2019-06-10T14:21:44.004Z,928.63
2019-06-10T14:24:16.470Z,913.35
2019-06-10T14:26:48.845Z,922.25
2019-06-10T14:29:21.162Z,925.10
2019-06-10T14:31:57.637Z,926.82
2019-06-10T14:34:34.228Z,897.23
2019-06-10T14:37:12.401Z,912.48
2019-06-10T14:39:45.507Z,916.38
2019-06-10T14:42:17.819Z,906.98
2019-06-10T14:44:52.537Z,895.95
2019-06-10T14:47:24.390Z,910.97
2019-06-10T14:49:59.357Z,902.13
2019-06-10T14:52:33.133Z,920.88
2019-06-10T14:55:09.360Z,911.65
2019-06-10T14:57:42.661Z,919.15
2019-06-10T15:00:18.199Z,915.87
2019-06-10T15:02:54.472Z,897.65
2019-06-10T15:05:26.879Z,905.50
2019-06-10T15:08:00.479Z,909.02
2019-06-10T15:13:07.663Z,887.03
2019-06-10T15:15:43.453Z,905.70
2019-06-10T15:18:18.218Z,908.75
2019-06-10T15:20:53.151Z,909.45
2019-06-10T15:25:57.481Z,914.60
2019-06-10T15:28:30.665Z,895.42
2019-06-10T15:31:03.440Z,895.10
2019-06-10T15:33:36.936Z,896.40
2019-06-10T15:36:15.283Z,911.03
2019-06-10T15:38:52.643Z,898.10
2019-06-10T15:41:32.286Z,899.68
2019-06-10T15:44:07.956Z,888.38
2019-06-10T15:46:43.037Z,910.10
2019-06-10T15:49:21.000Z,905.95
2019-06-10T15:51:52.746Z,911.58
2019-06-10T15:54:25.557Z,910.90
2019-06-10T15:56:58.400Z,910.70
2019-06-10T15:59:30.807Z,905.20
2019-06-10T16:02:04.678Z,907.62
2019-06-10T16:04:37.223Z,904.33
2019-06-10T16:07:14.632Z,887.78
2019-06-10T16:09:45.649Z,874.40
2019-06-10T16:12:24.878Z,893.88
2019-06-10T16:14:56.529Z,891.27
2019-06-10T16:17:30.196Z,887.55
2019-06-10T16:20:08.261Z,887.85
2019-06-10T16:22:45.165Z,892.10
2019-06-10T16:25:20.020Z,882.35
2019-06-10T16:27:54.462Z,868.67
2019-06-10T16:32:59.812Z,876.80
2019-06-10T16:35:32.470Z,882.00
2019-06-10T16:38:13.337Z,858.68
2019-06-10T16:40:45.712Z,882.75
2019-06-10T16:43:19.672Z,869.67
2019-06-10T16:48:25.545Z,860.17
2019-06-10T16:51:07.735Z,858.90
2019-06-10T16:53:42.478Z,878.33
2019-06-10T16:56:14.158Z,868.90
2019-06-10T16:58:46.491Z,866.05
2019-06-10T17:01:20.308Z,881.40
2019-06-10T17:03:55.217Z,878.12
2019-06-10T17:06:27.955Z,874.20
2019-06-10T17:09:02.849Z,865.72
2019-06-10T17:11:36.791Z,881.72
2019-06-10T17:14:09.204Z,850.50
2019-06-10T17:16:41.721Z,873.93
2019-06-10T17:19:14.425Z,864.78
2019-06-10T17:21:46.992Z,849.70
2019-06-10T17:24:21.678Z,847.93
2019-06-10T17:26:55.439Z,874.73
2019-06-10T17:29:30.273Z,849.70
2019-06-10T17:32:13.130Z,860.00
2019-06-10T17:34:45.712Z,866.68
2019-06-10T17:37:22.368Z,867.70
2019-06-10T17:39:54.027Z,850.70
2019-06-10T17:42:38.215Z,860.55
2019-06-10T17:45:15.183Z,870.65
2019-06-10T17:47:53.426Z,858.17
2019-06-10T17:50:46.417Z,850.25
2019-06-10T17:53:36.079Z,860.40
2019-06-10T17:56:15.045Z,868.02
2019-06-10T17:58:58.304Z,855.78
2019-06-10T18:01:34.233Z,872.30
2019-06-10T18:04:27.337Z,858.75
2019-06-10T18:07:13.023Z,915.53
2019-06-10T18:09:52.986Z,893.37
2019-06-10T18:12:52.701Z,911.17
2019-06-10T18:15:35.363Z,898.42
2019-06-10T18:18:09.708Z,786.23
2019-06-10T18:20:43.457Z,869.82
2019-06-10T18:23:15.927Z,884.80
2019-06-10T18:25:49.310Z,211.52
2019-06-10T18:28:22.584Z,659.63
2019-06-10T18:30:55.235Z,721.42
2019-06-10T18:33:27.726Z,644.45
2019-06-10T18:35:59.958Z,813.10
2019-06-10T18:38:35.134Z,810.00
2019-06-10T18:41:06.315Z,868.05
2019-06-10T18:43:40.027Z,711.67
2019-06-10T18:46:12.855Z,829.05
2019-06-10T18:48:45.279Z,236.87
2019-06-10T18:51:22.584Z,360.30
2019-06-10T18:53:54.732Z,796.72
2019-06-10T18:56:27.659Z,848.85
2019-06-10T18:59:15.659Z,842.92
2019-06-10T19:01:34.944Z,857.62
2019-06-10T19:04:07.280Z,821.87
2019-06-10T19:06:39.870Z,634.48
2019-06-10T19:09:12.955Z,838.57
2019-06-10T19:11:45.410Z,818.13
2019-06-10T19:14:17.581Z,809.30
2019-06-10T19:16:52.277Z,848.60
2019-06-10T19:19:26.354Z,772.95
2019-06-10T19:22:05.524Z,849.17
2019-06-10T19:24:35.847Z,842.83
2019-06-10T19:27:06.697Z,848.45
2019-06-10T19:29:45.494Z,865.87
2019-06-10T19:32:15.001Z,824.77
2019-06-10T19:34:48.725Z,843.75
2019-06-10T19:37:22.161Z,837.40
2019-06-10T19:39:58.791Z,803.63
2019-06-10T19:42:32.956Z,842.28
2019-06-10T19:45:08.844Z,869.13
2019-06-10T19:47:45.449Z,806.65
2019-06-10T19:50:16.960Z,812.78
2019-06-10T19:52:49.252Z,821.00
2019-06-10T19:55:23.366Z,835.00
2019-06-10T19:57:55.819Z,844.92
2019-06-10T20:00:28.172Z,831.80
2019-06-10T20:03:02.729Z,767.35
2019-06-10T20:05:36.109Z,834.62
2019-06-10T20:08:08.466Z,825.35
2019-06-10T20:10:40.764Z,848.87
2019-06-10T20:13:13.082Z,840.67
2019-06-10T20:15:47.959Z,846.83
2019-06-10T20:18:22.757Z,777.65
2019-06-10T20:20:55.195Z,741.15
2019-06-10T20:23:29.515Z,769.97
2019-06-10T20:26:02.705Z,764.87
2019-06-10T20:28:35.012Z,764.42
2019-06-10T20:31:07.355Z,763.17
2019-06-10T20:33:43.082Z,773.33
2019-06-10T20:36:21.822Z,751.15
2019-06-10T20:38:53.367Z,722.60
2019-06-10T20:41:24.792Z,795.40
2019-06-10T20:43:57.118Z,744.52
2019-06-10T20:46:29.368Z,728.27
2019-06-10T20:49:03.322Z,741.85
2019-06-10T20:51:52.011Z,770.27
2019-06-10T20:54:12.804Z,753.73
2019-06-10T20:56:48.353Z,769.17
2019-06-10T20:59:21.850Z,746.98
2019-06-10T21:01:53.693Z,803.22
2019-06-10T21:04:26.170Z,802.82
2019-06-10T21:07:02.528Z,806.98
2019-06-10T21:09:36.384Z,800.90
2019-06-10T21:12:08.671Z,742.67
2019-06-10T21:14:42.735Z,757.95
2019-06-10T21:17:15.995Z,481.52
2019-06-10T21:19:49.205Z,451.07
2019-06-10T21:22:21.586Z,753.30
2019-06-10T21:24:55.890Z,774.95
2019-06-10T21:27:28.216Z,756.47
2019-06-10T21:30:04.364Z,797.48
2019-06-10T21:32:34.647Z,729.80
2019-06-10T21:35:07.767Z,858.43
2019-06-10T21:37:42.546Z,794.43
2019-06-10T21:40:14.419Z,449.35
2019-06-10T21:42:47.880Z,499.30
2019-06-10T21:45:22.738Z,791.90
2019-06-10T21:47:54.595Z,777.02
2019-06-10T21:50:27.003Z,856.17
2019-06-10T21:53:03.084Z,749.62
2019-06-10T21:55:35.268Z,836.80
2019-06-10T21:58:09.551Z,701.80
2019-06-10T22:00:55.596Z,804.27
2019-06-10T22:03:23.188Z,775.40
2019-06-10T22:05:54.760Z,767.80
2019-06-10T22:08:28.026Z,830.13
2019-06-10T22:11:02.469Z,831.60
2019-06-10T22:13:34.293Z,797.77
2019-06-10T22:16:06.557Z,520.07
2019-06-10T22:18:38.852Z,290.77
2019-06-10T22:21:14.644Z,528.67
2019-06-10T22:23:47.169Z,286.92
2019-06-10T22:26:19.383Z,737.20
2019-06-10T22:28:55.809Z,757.23
2019-06-10T22:31:27.643Z,811.53
2019-06-10T22:34:00.015Z,806.70
2019-06-10T22:36:32.712Z,756.20
2019-06-10T22:39:05.559Z,758.40
2019-06-10T22:41:39.368Z,749.67
2019-06-10T22:44:12.695Z,717.63
2019-06-10T22:46:45.091Z,753.12
2019-06-10T22:49:17.420Z,762.15
2019-06-10T22:51:50.233Z,769.23
2019-06-10T22:54:22.729Z,780.40
2019-06-10T22:56:57.798Z,465.27
2019-06-10T22:59:29.094Z,812.15
2019-06-10T23:02:03.027Z,480.13
2019-06-10T23:04:35.500Z,269.02
2019-06-10T23:07:07.853Z,757.73
2019-06-10T23:09:42.900Z,778.87
2019-06-10T23:12:16.906Z,781.70
2019-06-10T23:14:52.864Z,784.30
2019-06-10T23:17:25.710Z,802.37
2019-06-10T23:19:58.480Z,775.57
2019-06-10T23:22:31.971Z,802.77
2019-06-10T23:25:06.592Z,581.50
2019-06-10T23:30:12.110Z,584.43
2019-06-10T23:32:45.471Z,358.83
2019-06-10T23:35:17.754Z,212.23
2019-06-10T23:37:50.525Z,242.47
2019-06-10T23:40:24.044Z,250.68
2019-06-10T23:42:57.041Z,793.40
2019-06-10T23:45:29.353Z,255.67
2019-06-10T23:48:04.882Z,240.40
2019-06-10T23:50:36.259Z,231.28
2019-06-10T23:53:08.504Z,238.53
2019-06-10T23:55:42.841Z,226.13
2019-06-10T23:58:14.744Z,251.40
